createdAt,value
2018-03-27T00:00:13.197Z,1.79
2018-03-27T00:01:23.323Z,1.79
2018-03-27T00:02:33.470Z,1.74
2018-03-27T00:03:43.391Z,1.84
2018-03-27T00:04:53.593Z,1.85
2018-03-27T00:06:03.449Z,1.73
2018-03-27T00:07:13.654Z,1.72
2018-03-27T00:08:23.800Z,1.77
2018-03-27T00:09:33.984Z,1.72
2018-03-27T00:10:43.894Z,1.69
2018-03-27T00:11:54.021Z,1.66
2018-03-27T00:13:04.168Z,1.67
2018-03-27T00:14:14.329Z,1.57
2018-03-27T00:15:24.494Z,1.66
2018-03-27T00:16:34.690Z,1.57
2018-03-27T00:17:44.874Z,1.6
2018-03-27T00:18:55.019Z,1.57
2018-03-27T00:20:05.168Z,1.58
2018-03-27T00:21:15.033Z,1.69
2018-03-27T00:22:24.974Z,1.57
2018-03-27T00:23:35.107Z,1.57
2018-03-27T00:24:45.289Z,1.57
2018-03-27T00:25:55.604Z,1.51
2018-03-27T00:27:05.748Z,1.55
2018-03-27T00:28:15.947Z,1.57
2018-03-27T00:29:25.837Z,1.55
2018-03-27T00:30:35.710Z,1.5
2018-03-27T00:31:45.829Z,1.53
2018-03-27T00:32:55.762Z,1.38
2018-03-27T00:34:05.373Z,1.4
2018-03-27T00:35:15.022Z,1.39
2018-03-27T00:36:25.155Z,1.33
2018-03-27T00:37:35.042Z,1.36
2018-03-27T00:38:45.211Z,1.35
2018-03-27T00:39:55.108Z,1.3
2018-03-27T00:41:05.233Z,1.33
2018-03-27T00:42:14.896Z,1.4
2018-03-27T00:43:24.829Z,1.33
2018-03-27T00:44:34.800Z,1.33
2018-03-27T00:45:44.581Z,1.3
2018-03-27T00:46:54.645Z,1.46
2018-03-27T00:48:04.418Z,1.42
2018-03-27T00:49:14.570Z,1.48
2018-03-27T00:50:24.442Z,1.4
2018-03-27T00:51:34.298Z,1.47
2018-03-27T00:52:44.421Z,1.47
2018-03-27T00:53:54.548Z,1.42
2018-03-27T00:55:04.761Z,1.4
2018-03-27T00:56:14.964Z,1.47
2018-03-27T00:57:25.163Z,1.4
2018-03-27T00:58:35.339Z,1.4
2018-03-27T00:59:45.447Z,1.46
2018-03-27T01:00:55.596Z,1.48
2018-03-27T01:02:05.759Z,1.51
2018-03-27T01:03:15.936Z,1.64
2018-03-27T01:04:26.083Z,1.51
2018-03-27T01:05:36.337Z,1.69
2018-03-27T01:06:46.485Z,1.57
2018-03-27T01:07:56.629Z,1.54
2018-03-27T01:09:06.826Z,1.72
2018-03-27T01:10:16.446Z,1.74
2018-03-27T01:11:26.574Z,1.73
2018-03-27T01:12:36.744Z,1.79
2018-03-27T01:13:46.871Z,1.73
2018-03-27T01:14:57.041Z,1.8
2018-03-27T01:16:07.211Z,1.77
2018-03-27T01:17:17.352Z,1.8
2018-03-27T01:18:27.500Z,1.92
2018-03-27T01:19:37.637Z,1.91
2018-03-27T01:20:47.594Z,1.88
2018-03-27T01:21:57.706Z,1.85
2018-03-27T01:23:07.864Z,1.97
2018-03-27T01:24:17.988Z,1.97
2018-03-27T01:25:27.499Z,2.06
2018-03-27T01:26:37.622Z,2.01
2018-03-27T01:27:47.736Z,2
2018-03-27T01:28:57.777Z,2
2018-03-27T01:30:07.585Z,1.95
2018-03-27T01:31:17.494Z,1.92
2018-03-27T01:32:27.658Z,1.94
2018-03-27T01:33:37.641Z,1.84
2018-03-27T01:34:47.519Z,1.9
2018-03-27T01:35:57.386Z,1.84
2018-03-27T01:37:07.261Z,1.8
2018-03-27T01:38:17.109Z,1.74
2018-03-27T01:39:26.617Z,1.72
2018-03-27T01:40:36.116Z,1.74
2018-03-27T01:41:45.992Z,1.74
2018-03-27T01:42:55.888Z,1.76
2018-03-27T01:44:06.068Z,1.74
2018-03-27T01:45:15.714Z,1.77
2018-03-27T01:46:26.819Z,1.72
2018-03-27T01:47:36.942Z,1.73
2018-03-27T01:48:46.816Z,1.72
2018-03-27T01:49:56.968Z,1.76
2018-03-27T01:51:06.859Z,1.73
2018-03-27T01:52:16.762Z,1.74
2018-03-27T01:53:27.003Z,1.74
2018-03-27T01:54:37.172Z,1.76
2018-03-27T01:55:47.322Z,1.72
2018-03-27T01:56:57.449Z,1.76
2018-03-27T01:58:07.080Z,1.73
2018-03-27T01:59:16.885Z,1.76
2018-03-27T02:00:27.009Z,1.73
2018-03-27T02:01:36.882Z,1.76
2018-03-27T02:02:47.021Z,1.82
2018-03-27T02:03:57.886Z,1.85
2018-03-27T02:05:08.018Z,1.85
2018-03-27T02:06:18.164Z,1.79
2018-03-27T02:07:28.334Z,1.76
2018-03-27T02:08:38.510Z,1.9
2018-03-27T02:09:48.734Z,1.87
2018-03-27T02:10:58.876Z,1.82
2018-03-27T02:12:09.070Z,1.9
2018-03-27T02:13:19.239Z,1.88
2018-03-27T02:14:29.107Z,1.87
2018-03-27T02:15:39.277Z,1.92
2018-03-27T02:16:49.148Z,1.95
2018-03-27T02:17:59.316Z,1.97
2018-03-27T02:19:09.527Z,2.06
2018-03-27T02:20:19.755Z,2.08
2018-03-27T02:21:29.971Z,2.06
2018-03-27T02:22:40.116Z,2.1
2018-03-27T02:23:50.403Z,2.08
2018-03-27T02:25:00.285Z,2.21
2018-03-27T02:26:10.431Z,2.24
2018-03-27T02:27:20.312Z,2.27
2018-03-27T02:28:30.290Z,2.28
2018-03-27T02:29:40.505Z,2.36
2018-03-27T02:30:50.741Z,2.28
2018-03-27T02:32:00.981Z,2.34
2018-03-27T02:33:11.195Z,2.33
2018-03-27T02:34:21.408Z,2.46
2018-03-27T02:35:31.554Z,2.33
2018-03-27T02:36:41.759Z,2.27
2018-03-27T02:37:51.902Z,2.33
2018-03-27T02:39:01.794Z,2.37
2018-03-27T02:40:11.947Z,2.41
2018-03-27T02:41:22.077Z,2.31
2018-03-27T02:42:32.217Z,2.28
2018-03-27T02:43:42.406Z,2.16
2018-03-27T02:44:52.021Z,2.34
2018-03-27T02:46:02.193Z,2.23
2018-03-27T02:47:11.971Z,2.23
2018-03-27T02:48:21.938Z,2.44
2018-03-27T02:49:32.061Z,2.31
2018-03-27T02:50:41.857Z,2.37
2018-03-27T02:51:51.990Z,2.36
2018-03-27T02:53:02.191Z,2.45
2018-03-27T02:54:12.354Z,2.37
2018-03-27T02:55:22.286Z,2.45
2018-03-27T02:56:32.148Z,2.45
2018-03-27T02:57:42.299Z,2.41
2018-03-27T02:58:52.192Z,2.46
2018-03-27T03:00:02.348Z,2.49
2018-03-27T03:01:12.589Z,2.62
2018-03-27T03:02:22.766Z,2.49
2018-03-27T03:03:32.881Z,2.46
2018-03-27T03:04:42.497Z,2.49
2018-03-27T03:05:52.603Z,2.39
2018-03-27T03:07:02.764Z,2.48
2018-03-27T03:08:12.920Z,2.39
2018-03-27T03:09:23.117Z,2.31
2018-03-27T03:10:33.286Z,2.31
2018-03-27T03:11:43.527Z,2.41
2018-03-27T03:12:53.403Z,2.39
2018-03-27T03:14:03.265Z,2.42
2018-03-27T03:15:13.124Z,2.39
2018-03-27T03:16:23.247Z,2.27
2018-03-27T03:17:33.379Z,2.41
2018-03-27T03:18:43.241Z,2.27
2018-03-27T03:19:53.411Z,2.27
2018-03-27T03:21:03.600Z,2.31
2018-03-27T03:22:13.431Z,2.28
2018-03-27T03:23:22.943Z,2.34
2018-03-27T03:24:32.702Z,2.31
2018-03-27T03:25:42.910Z,2.37
2018-03-27T03:26:52.805Z,2.33
2018-03-27T03:28:02.682Z,2.34
2018-03-27T03:29:12.803Z,2.33
2018-03-27T03:30:22.673Z,2.36
2018-03-27T03:31:32.562Z,2.48
2018-03-27T03:32:42.739Z,2.45
2018-03-27T03:33:53.001Z,2.49
2018-03-27T03:35:02.891Z,2.44
2018-03-27T03:36:12.776Z,2.49
2018-03-27T03:37:22.898Z,2.45
2018-03-27T03:38:33.077Z,2.49
2018-03-27T03:39:43.229Z,2.49
2018-03-27T03:40:53.377Z,2.53
2018-03-27T03:42:03.575Z,2.59
2018-03-27T03:43:13.835Z,2.63
2018-03-27T03:44:23.755Z,2.69
2018-03-27T03:45:33.909Z,2.73
2018-03-27T03:46:44.046Z,2.73
2018-03-27T03:47:53.814Z,2.79
2018-03-27T03:49:03.722Z,2.81
2018-03-27T03:50:13.890Z,2.82
2018-03-27T03:51:24.009Z,2.79
2018-03-27T03:52:34.276Z,2.81
2018-03-27T03:53:43.882Z,2.82
2018-03-27T03:54:53.726Z,2.77
2018-03-27T03:56:03.698Z,2.74
2018-03-27T03:57:13.948Z,2.87
2018-03-27T03:58:24.083Z,2.89
2018-03-27T03:59:33.966Z,2.88
2018-03-27T04:00:43.696Z,2.91
2018-03-27T04:01:53.926Z,2.85
2018-03-27T04:03:04.064Z,2.96
2018-03-27T04:04:14.202Z,3
2018-03-27T04:05:23.832Z,3.02
2018-03-27T04:06:33.995Z,3.06
2018-03-27T04:07:44.275Z,3.04
2018-03-27T04:08:54.160Z,3.08
2018-03-27T04:10:03.928Z,3.04
2018-03-27T04:11:14.518Z,2.96
2018-03-27T04:12:24.725Z,2.92
2018-03-27T04:13:34.852Z,2.89
2018-03-27T04:14:44.778Z,2.84
2018-03-27T04:15:54.918Z,2.77
2018-03-27T04:17:05.059Z,2.7
2018-03-27T04:18:15.188Z,2.64
2018-03-27T04:19:25.093Z,2.46
2018-03-27T04:20:35.005Z,2.41
2018-03-27T04:21:44.933Z,2.34
2018-03-27T04:22:55.056Z,2.15
2018-03-27T04:24:04.557Z,2
2018-03-27T04:25:14.702Z,2
2018-03-27T04:26:24.558Z,1.82
2018-03-27T04:27:34.556Z,1.85
2018-03-27T04:28:44.691Z,1.77
2018-03-27T04:29:54.920Z,1.7
2018-03-27T04:31:05.093Z,1.66
2018-03-27T04:32:15.313Z,1.55
2018-03-27T04:33:25.538Z,1.55
2018-03-27T04:34:35.735Z,1.51
2018-03-27T04:35:45.882Z,1.5
2018-03-27T04:36:56.254Z,1.47
2018-03-27T04:38:06.404Z,1.51
2018-03-27T04:39:16.658Z,1.6
2018-03-27T04:40:26.799Z,1.69
2018-03-27T04:41:36.956Z,1.72
2018-03-27T04:42:46.866Z,1.73
2018-03-27T04:43:56.994Z,1.74
2018-03-27T04:45:07.207Z,1.7
2018-03-27T04:46:17.344Z,1.69
2018-03-27T04:47:27.273Z,1.79
2018-03-27T04:48:36.530Z,1.79
2018-03-27T04:49:46.729Z,1.79
2018-03-27T04:50:56.585Z,1.79
2018-03-27T04:52:06.496Z,1.8
2018-03-27T04:53:16.872Z,1.88
2018-03-27T04:54:26.788Z,1.92
2018-03-27T04:55:36.338Z,1.82
2018-03-27T04:56:45.988Z,1.9
2018-03-27T04:57:55.864Z,1.9
2018-03-27T04:59:05.646Z,1.84
2018-03-27T05:00:15.512Z,1.91
2018-03-27T05:01:25.617Z,1.77
2018-03-27T05:02:35.756Z,1.9
2018-03-27T05:03:45.624Z,1.8
2018-03-27T05:04:55.575Z,1.7
2018-03-27T05:06:05.098Z,1.74
2018-03-27T05:07:15.236Z,1.73
2018-03-27T05:08:25.412Z,1.55
2018-03-27T05:09:34.929Z,1.66
2018-03-27T05:10:45.306Z,1.67
2018-03-27T05:11:55.219Z,1.67
2018-03-27T05:13:05.410Z,1.74
2018-03-27T05:14:14.666Z,1.74
2018-03-27T05:15:24.830Z,1.58
2018-03-27T05:16:34.746Z,1.69
2018-03-27T05:17:44.946Z,1.57
2018-03-27T05:18:55.124Z,1.55
2018-03-27T05:20:05.233Z,1.55
2018-03-27T05:21:15.564Z,1.58
2018-03-27T05:22:25.734Z,1.58
2018-03-27T05:23:35.856Z,1.53
2018-03-27T05:24:46.006Z,1.67
2018-03-27T05:25:56.236Z,1.79
2018-03-27T05:27:06.403Z,1.76
2018-03-27T05:28:16.514Z,1.7
2018-03-27T05:29:26.666Z,1.87
2018-03-27T05:30:36.825Z,1.82
2018-03-27T05:31:46.910Z,1.85
2018-03-27T05:32:57.224Z,1.87
2018-03-27T05:34:07.352Z,1.84
2018-03-27T05:35:17.495Z,1.85
2018-03-27T05:36:27.973Z,1.82
2018-03-27T05:37:38.099Z,1.82
2018-03-27T05:38:48.331Z,1.77
2018-03-27T05:39:58.209Z,1.84
2018-03-27T05:41:08.065Z,1.92
2018-03-27T05:42:18.045Z,1.84
2018-03-27T05:43:27.680Z,1.91
2018-03-27T05:44:37.578Z,1.88
2018-03-27T05:45:47.473Z,1.85
2018-03-27T05:46:57.598Z,1.92
2018-03-27T05:48:07.461Z,2
2018-03-27T05:49:17.497Z,1.92
2018-03-27T05:50:27.628Z,1.87
2018-03-27T05:51:37.144Z,1.85
2018-03-27T05:52:46.510Z,1.84
2018-03-27T05:53:56.636Z,1.82
2018-03-27T05:55:06.236Z,1.97
2018-03-27T05:56:16.369Z,1.88
2018-03-27T05:57:26.506Z,1.85
2018-03-27T05:58:35.769Z,1.9
2018-03-27T05:59:45.667Z,1.85
2018-03-27T06:00:55.595Z,1.91
2018-03-27T06:02:05.455Z,2.03
2018-03-27T06:03:15.367Z,2.08
2018-03-27T06:04:25.494Z,2.09
2018-03-27T06:05:35.662Z,2.16
2018-03-27T06:06:45.794Z,2.18
2018-03-27T06:07:55.982Z,2.08
2018-03-27T06:09:06.136Z,2.1
2018-03-27T06:10:15.988Z,2.08
2018-03-27T06:11:26.120Z,2.05
2018-03-27T06:12:36.374Z,2.21
2018-03-27T06:13:46.475Z,2.26
2018-03-27T06:14:56.630Z,2.31
2018-03-27T06:16:06.565Z,2.26
2018-03-27T06:17:16.180Z,2.31
2018-03-27T06:18:25.771Z,2.36
2018-03-27T06:19:35.911Z,2.26
2018-03-27T06:20:46.098Z,2.36
2018-03-27T06:21:56.254Z,2.31
2018-03-27T06:23:06.449Z,2.31
2018-03-27T06:24:16.562Z,2.23
2018-03-27T06:25:26.372Z,2.28
2018-03-27T06:26:36.619Z,2.08
2018-03-27T06:27:46.998Z,2.15
2018-03-27T06:28:56.746Z,2.23
2018-03-27T06:30:06.666Z,2.15
2018-03-27T06:31:16.573Z,2.15
2018-03-27T06:32:26.718Z,2.21
2018-03-27T06:33:36.946Z,2.26
2018-03-27T06:34:46.575Z,2.34
2018-03-27T06:35:56.730Z,2.37
2018-03-27T06:37:06.689Z,2.33
2018-03-27T06:38:16.927Z,2.48
2018-03-27T06:39:26.834Z,2.39
2018-03-27T06:40:36.687Z,2.39
2018-03-27T06:41:46.635Z,2.44
2018-03-27T06:42:56.841Z,2.33
2018-03-27T06:44:07.035Z,2.31
2018-03-27T06:45:17.199Z,2.42
2018-03-27T06:46:27.349Z,2.28
2018-03-27T06:47:37.074Z,2.33
2018-03-27T06:48:47.517Z,2.3
2018-03-27T06:49:57.014Z,2.41
2018-03-27T06:51:07.199Z,2.42
2018-03-27T06:52:17.327Z,2.39
2018-03-27T06:53:27.480Z,2.37
2018-03-27T06:54:37.617Z,2.48
2018-03-27T06:55:47.777Z,2.44
2018-03-27T06:56:57.923Z,2.46
2018-03-27T06:58:08.186Z,2.52
2018-03-27T06:59:18.361Z,2.55
2018-03-27T07:00:28.630Z,2.53
2018-03-27T07:01:38.822Z,2.6
2018-03-27T07:02:49.009Z,2.59
2018-03-27T07:03:59.173Z,2.74
2018-03-27T07:05:09.414Z,2.78
2018-03-27T07:06:19.911Z,2.82
2018-03-27T07:07:30.139Z,2.88
2018-03-27T07:08:40.279Z,2.99
2018-03-27T07:09:50.436Z,3.02
2018-03-27T07:11:00.701Z,3.21
2018-03-27T07:12:11.058Z,3.19
2018-03-27T07:13:21.617Z,3.37
2018-03-27T07:14:31.813Z,3.49
2018-03-27T07:15:42.022Z,3.73
2018-03-27T07:16:51.926Z,3.75
2018-03-27T07:18:02.116Z,3.85
2018-03-27T07:19:12.358Z,4
2018-03-27T07:20:22.565Z,4.13
2018-03-27T07:21:32.766Z,4.16
2018-03-27T07:22:42.793Z,4.23
2018-03-27T07:23:52.974Z,4.28
2018-03-27T07:25:03.151Z,4.28
2018-03-27T07:26:13.394Z,4.41
2018-03-27T07:27:23.630Z,4.55
2018-03-27T07:28:33.922Z,4.6
2018-03-27T07:29:44.143Z,4.86
2018-03-27T07:30:54.468Z,5
2018-03-27T07:32:04.639Z,5.06
2018-03-27T07:33:14.802Z,5.11
2018-03-27T07:34:24.995Z,5.08
2018-03-27T07:35:35.133Z,5.18
2018-03-27T07:36:45.527Z,5.32
2018-03-27T07:37:55.710Z,5.29
2018-03-27T07:39:05.996Z,5.29
2018-03-27T07:40:16.131Z,5.33
2018-03-27T07:41:25.981Z,5.47
2018-03-27T07:42:36.175Z,5.44
2018-03-27T07:43:46.342Z,5.54
2018-03-27T07:44:56.564Z,5.67
2018-03-27T07:46:06.259Z,5.68
2018-03-27T07:47:16.481Z,5.79
2018-03-27T07:48:26.660Z,5.75
2018-03-27T07:49:37.029Z,5.75
2018-03-27T07:50:47.265Z,5.8
2018-03-27T07:51:57.402Z,5.79
2018-03-27T07:53:07.601Z,5.93
2018-03-27T07:54:17.872Z,5.77
2018-03-27T07:55:28.128Z,6.05
2018-03-27T07:56:38.427Z,6.12
2018-03-27T07:57:48.592Z,6.24
2018-03-27T07:58:58.802Z,6.44
2018-03-27T08:00:08.941Z,6.46
2018-03-27T08:01:19.105Z,6.48
2018-03-27T08:02:29.245Z,6.48
2018-03-27T08:03:39.400Z,6.48
2018-03-27T08:04:49.519Z,6.69
2018-03-27T08:05:59.678Z,6.82
2018-03-27T08:07:09.909Z,7.24
2018-03-27T08:08:20.062Z,7.79
2018-03-27T08:09:30.314Z,8.24
2018-03-27T08:10:40.411Z,8.89
2018-03-27T08:11:50.588Z,9.38
2018-03-27T08:13:01.003Z,9.84
2018-03-27T08:14:11.260Z,10.33
2018-03-27T08:15:21.456Z,10.88
2018-03-27T08:16:31.654Z,11.42
2018-03-27T08:17:41.851Z,11.83
2018-03-27T08:18:52.118Z,12.26
2018-03-27T08:20:02.256Z,12.63
2018-03-27T08:21:12.440Z,13.03
2018-03-27T08:22:22.697Z,13.3
2018-03-27T08:23:32.873Z,13.45
2018-03-27T08:24:43.044Z,13.64
2018-03-27T08:25:53.304Z,13.77
2018-03-27T08:27:03.640Z,14.03
2018-03-27T08:28:14.027Z,14.19
2018-03-27T08:29:24.178Z,14.28
2018-03-27T08:30:34.359Z,14.39
2018-03-27T08:31:44.508Z,14.28
2018-03-27T08:32:54.715Z,14.31
2018-03-27T08:34:04.865Z,14.5
2018-03-27T08:35:15.128Z,14.67
2018-03-27T08:36:25.557Z,14.98
2018-03-27T08:37:35.873Z,15.11
2018-03-27T08:38:46.069Z,15.17
2018-03-27T08:39:56.246Z,15.06
2018-03-27T08:41:06.402Z,15.05
2018-03-27T08:42:16.536Z,14.83
2018-03-27T08:43:26.735Z,14.54
2018-03-27T08:44:37.004Z,14.37
2018-03-27T08:45:47.234Z,14.54
2018-03-27T08:46:57.408Z,14.69
2018-03-27T08:48:07.611Z,14.85
2018-03-27T08:49:17.761Z,14.99
2018-03-27T08:50:28.095Z,15.17
2018-03-27T08:51:37.960Z,15.23
2018-03-27T08:52:48.155Z,15.4
2018-03-27T08:53:58.365Z,15.73
2018-03-27T08:55:08.593Z,16.02
2018-03-27T08:56:18.739Z,16.42
2018-03-27T08:57:29.504Z,16.56
2018-03-27T08:58:39.796Z,16.9
2018-03-27T08:59:50.071Z,17.04
2018-03-27T09:01:00.333Z,17.31
2018-03-27T09:02:10.484Z,17.21
2018-03-27T09:03:20.888Z,17.11
2018-03-27T09:04:30.785Z,17.09
2018-03-27T09:05:40.982Z,17.17
2018-03-27T09:06:51.192Z,17.45
2018-03-27T09:08:01.385Z,17.62
2018-03-27T09:09:11.841Z,17.31
2018-03-27T09:10:22.037Z,17.28
2018-03-27T09:11:32.222Z,17.27
2018-03-27T09:12:42.369Z,17.01
2018-03-27T09:13:52.893Z,17.04
2018-03-27T09:15:03.194Z,17.14
2018-03-27T09:16:13.031Z,17.21
2018-03-27T09:17:23.193Z,17.11
2018-03-27T09:18:33.107Z,16.68
2018-03-27T09:19:43.629Z,16.34
2018-03-27T09:20:55.039Z,16.21
2018-03-27T09:27:06.498Z,16.24
2018-03-27T09:29:33.450Z,16.53
2018-03-27T09:30:43.610Z,16.76
2018-03-27T09:31:53.437Z,16.68
2018-03-27T09:33:03.598Z,16.65
2018-03-27T09:34:13.417Z,16.69
2018-03-27T09:35:23.616Z,16.84
2018-03-27T09:36:33.760Z,16.68
2018-03-27T09:37:44.148Z,16.74
2018-03-27T09:38:54.055Z,17.01
2018-03-27T09:40:04.315Z,17.36
2018-03-27T09:41:14.226Z,17.83
2018-03-27T09:42:24.221Z,18.35
2018-03-27T09:43:34.431Z,18.65
2018-03-27T09:44:44.655Z,18.98
2018-03-27T09:45:54.583Z,18.62
2018-03-27T09:47:04.759Z,17.94
2018-03-27T09:48:14.927Z,17.27
2018-03-27T09:49:24.913Z,17.01
2018-03-27T09:50:34.738Z,16.44
2018-03-27T09:51:44.530Z,15.76
2018-03-27T09:52:54.782Z,15.35
2018-03-27T09:54:04.995Z,14.83
2018-03-27T09:55:15.279Z,14.5
2018-03-27T09:56:25.234Z,14.7
2018-03-27T09:57:34.772Z,14.9
2018-03-27T09:58:44.492Z,15.21
2018-03-27T09:59:54.739Z,15.51
2018-03-27T10:01:04.753Z,15.78
2018-03-27T10:02:15.038Z,15.96
2018-03-27T10:03:24.679Z,16.36
2018-03-27T10:04:34.995Z,16.84
2018-03-27T10:05:44.943Z,17.3
2018-03-27T10:06:55.115Z,17.75
2018-03-27T10:08:04.666Z,17.61
2018-03-27T10:09:14.309Z,17.7
2018-03-27T10:10:24.610Z,17.86
2018-03-27T10:11:34.262Z,17.98
2018-03-27T10:12:44.479Z,18.12
2018-03-27T10:13:54.483Z,18.02
2018-03-27T10:15:04.650Z,17.98
2018-03-27T10:16:14.482Z,18.02
2018-03-27T10:17:24.689Z,18.3
2018-03-27T10:18:34.378Z,18.46
2018-03-27T10:19:44.567Z,18.69
2018-03-27T10:20:54.745Z,19.08
2018-03-27T10:22:04.693Z,19.23
2018-03-27T10:23:15.027Z,19.46
2018-03-27T10:24:24.995Z,19.53
2018-03-27T10:25:35.047Z,19.25
2018-03-27T10:26:44.868Z,18.69
2018-03-27T10:27:54.646Z,18.01
2018-03-27T10:29:04.911Z,17.36
2018-03-27T10:30:15.102Z,16.68
2018-03-27T10:31:25.145Z,15.99
2018-03-27T10:32:35.362Z,15.3
2018-03-27T10:33:45.536Z,15.25
2018-03-27T10:34:55.091Z,15.29
2018-03-27T10:36:06.233Z,15.42
2018-03-27T10:37:15.870Z,15.58
2018-03-27T10:38:26.126Z,15.89
2018-03-27T10:39:36.310Z,15.82
2018-03-27T10:40:45.967Z,15.98
2018-03-27T10:41:55.864Z,16.2
2018-03-27T10:43:06.031Z,16.44
2018-03-27T10:44:16.256Z,16.86
2018-03-27T10:45:26.299Z,17.02
2018-03-27T10:46:36.269Z,16.82
2018-03-27T10:47:46.412Z,16.82
2018-03-27T10:48:56.641Z,16.82
2018-03-27T10:50:06.902Z,16.94
2018-03-27T10:51:16.738Z,16.96
2018-03-27T10:52:26.942Z,17.05
2018-03-27T10:53:37.141Z,17.05
2018-03-27T10:54:47.332Z,17.3
2018-03-27T10:55:57.489Z,17.62
2018-03-27T10:57:07.447Z,17.87
2018-03-27T10:58:16.980Z,18.07
2018-03-27T10:59:27.145Z,18.02
2018-03-27T11:00:37.405Z,17.72
2018-03-27T11:01:47.325Z,17.09
2018-03-27T11:02:57.179Z,16.62
2018-03-27T11:04:06.809Z,16.29
2018-03-27T11:05:16.977Z,15.84
2018-03-27T11:06:26.660Z,15.63
2018-03-27T11:07:36.876Z,15.69
2018-03-27T11:08:46.275Z,15.66
2018-03-27T11:09:56.012Z,15.88
2018-03-27T11:11:06.026Z,16.06
2018-03-27T11:12:15.421Z,16.38
2018-03-27T11:13:25.321Z,16.57
2018-03-27T11:14:35.256Z,17.08
2018-03-27T11:15:45.331Z,17.58
2018-03-27T11:16:55.264Z,17.92
2018-03-27T11:18:05.460Z,17.91
2018-03-27T11:19:15.712Z,18
2018-03-27T11:20:25.985Z,17.92
2018-03-27T11:21:36.259Z,17.73
2018-03-27T11:22:46.471Z,17.6
2018-03-27T11:23:56.683Z,17.58
2018-03-27T11:25:06.847Z,17.64
2018-03-27T11:26:17.081Z,17.75
2018-03-27T11:27:27.235Z,17.77
2018-03-27T11:28:37.200Z,17.76
2018-03-27T11:29:47.377Z,17.5
2018-03-27T11:30:57.789Z,17.32
2018-03-27T11:32:08.159Z,17.31
2018-03-27T11:33:17.836Z,17.43
2018-03-27T11:34:27.986Z,17.43
2018-03-27T11:35:37.915Z,17.4
2018-03-27T11:36:47.922Z,17.49
2018-03-27T11:37:57.908Z,17.65
2018-03-27T11:39:08.147Z,17.95
2018-03-27T11:40:18.146Z,18.25
2018-03-27T11:41:28.391Z,18.41
2018-03-27T11:42:38.619Z,18.63
2018-03-27T11:43:48.841Z,18.57
2018-03-27T11:44:59.031Z,18.37
2018-03-27T11:46:09.208Z,18.07
2018-03-27T11:47:19.463Z,17.87
2018-03-27T11:48:29.701Z,17.82
2018-03-27T11:49:39.365Z,17.86
2018-03-27T11:50:49.285Z,17.61
2018-03-27T11:51:59.201Z,17.12
2018-03-27T11:53:09.140Z,16.99
2018-03-27T11:54:19.349Z,16.86
2018-03-27T11:55:29.752Z,16.69
2018-03-27T11:56:39.312Z,16.9
2018-03-27T11:57:49.525Z,17.08
2018-03-27T11:58:59.687Z,17.16
2018-03-27T12:00:09.662Z,17.49
2018-03-27T12:01:19.846Z,17.77
2018-03-27T12:02:30.018Z,17.91
2018-03-27T12:03:40.231Z,17.75
2018-03-27T12:04:50.415Z,17.61
2018-03-27T12:06:00.096Z,17.27
2018-03-27T12:07:10.020Z,16.98
2018-03-27T12:08:20.197Z,16.69
2018-03-27T12:09:30.400Z,16.06
2018-03-27T12:10:40.352Z,15.54
2018-03-27T12:11:50.271Z,15.33
2018-03-27T12:13:00.191Z,15.11
2018-03-27T12:14:10.029Z,15.11
2018-03-27T12:15:20.036Z,15.24
2018-03-27T12:16:29.936Z,15.35
2018-03-27T12:17:40.115Z,15.45
2018-03-27T12:18:50.286Z,15.63
2018-03-27T12:20:00.458Z,15.92
2018-03-27T12:21:10.341Z,16.13
2018-03-27T12:22:20.499Z,16.35
2018-03-27T12:23:30.731Z,16.47
2018-03-27T12:24:40.661Z,16.39
2018-03-27T12:25:50.617Z,16.04
2018-03-27T12:27:00.241Z,15.78
2018-03-27T12:28:09.896Z,15.55
2018-03-27T12:29:19.706Z,15.43
2018-03-27T12:30:29.356Z,15.24
2018-03-27T12:31:39.647Z,15.11
2018-03-27T12:32:49.915Z,14.84
2018-03-27T12:34:00.086Z,14.7
2018-03-27T12:35:10.247Z,14.51
2018-03-27T12:36:21.385Z,14.5
2018-03-27T12:37:31.423Z,14.4
2018-03-27T12:38:41.867Z,14.14
2018-03-27T12:39:52.023Z,14.14
2018-03-27T12:41:01.951Z,14.04
2018-03-27T12:42:11.977Z,13.76
2018-03-27T12:43:21.753Z,13.52
2018-03-27T12:44:31.990Z,13.33
2018-03-27T12:45:42.177Z,13.15
2018-03-27T12:46:52.366Z,12.81
2018-03-27T12:48:02.589Z,12.62
2018-03-27T12:49:12.787Z,12.44
2018-03-27T12:50:22.898Z,12.19
2018-03-27T12:51:33.111Z,11.89
2018-03-27T12:52:43.288Z,11.46
2018-03-27T12:53:53.490Z,11.39
2018-03-27T12:55:03.643Z,11.23
2018-03-27T12:56:13.802Z,11.1
2018-03-27T12:57:23.989Z,11.16
2018-03-27T12:58:34.202Z,11.1
2018-03-27T13:00:16.246Z,11.15
2018-03-27T13:01:26.407Z,11.3
2018-03-27T13:02:35.726Z,11.43
2018-03-27T13:03:46.876Z,11.5
2018-03-27T13:04:56.682Z,11.5
2018-03-27T13:06:07.700Z,11.69
2018-03-27T13:07:17.855Z,11.82
2018-03-27T13:08:27.762Z,11.9
2018-03-27T13:09:37.949Z,11.89
2018-03-27T13:10:47.344Z,11.77
2018-03-27T13:11:57.606Z,11.71
2018-03-27T13:13:07.712Z,11.71
2018-03-27T13:14:17.897Z,11.69
2018-03-27T13:15:28.323Z,11.66
2018-03-27T13:16:38.467Z,11.34
2018-03-27T13:17:48.386Z,11.24
2018-03-27T13:18:58.304Z,10.97
2018-03-27T13:20:08.465Z,10.84
2018-03-27T13:21:18.687Z,10.88
2018-03-27T13:22:28.647Z,10.91
2018-03-27T13:23:38.330Z,11.05
2018-03-27T13:24:48.006Z,11.1
2018-03-27T13:25:58.141Z,11.13
2018-03-27T13:27:08.332Z,11.34
2018-03-27T13:28:18.506Z,11.43
2018-03-27T13:29:29.271Z,11.43
2018-03-27T13:30:39.492Z,11.59
2018-03-27T13:31:49.817Z,11.71
2018-03-27T13:32:59.993Z,11.82
2018-03-27T13:34:10.190Z,11.91
2018-03-27T13:35:19.979Z,11.89
2018-03-27T13:36:30.139Z,11.91
2018-03-27T13:37:40.304Z,12.05
2018-03-27T13:38:51.509Z,11.99
2018-03-27T13:40:01.138Z,11.87
2018-03-27T13:41:11.039Z,11.72
2018-03-27T13:42:20.859Z,11.58
2018-03-27T13:43:31.072Z,11.65
2018-03-27T13:44:41.069Z,11.46
2018-03-27T13:45:51.012Z,11.42
2018-03-27T13:47:01.226Z,11.28
2018-03-27T13:48:11.549Z,11.15
2018-03-27T13:49:21.749Z,11.12
2018-03-27T13:50:31.706Z,11.21
2018-03-27T13:51:41.506Z,11.16
2018-03-27T13:52:51.109Z,11.28
2018-03-27T13:54:01.420Z,11.33
2018-03-27T13:55:11.321Z,11.43
2018-03-27T13:56:21.495Z,11.39
2018-03-27T13:57:31.711Z,11.3
2018-03-27T13:58:41.616Z,11.45
2018-03-27T13:59:51.806Z,11.34
2018-03-27T14:01:02.485Z,11.46
2018-03-27T14:02:12.613Z,11.43
2018-03-27T14:03:22.841Z,11.45
2018-03-27T14:04:33.008Z,11.46
2018-03-27T14:05:43.218Z,11.4
2018-03-27T14:06:53.102Z,11.39
2018-03-27T14:08:02.902Z,11.34
2018-03-27T14:09:12.855Z,11.06
2018-03-27T14:10:23.178Z,10.88
2018-03-27T14:11:33.130Z,10.76
2018-03-27T14:12:43.295Z,10.77
2018-03-27T14:13:52.833Z,10.84
2018-03-27T14:15:03.246Z,10.84
2018-03-27T14:16:13.423Z,10.77
2018-03-27T14:17:23.252Z,10.76
2018-03-27T14:18:32.924Z,10.67
2018-03-27T14:19:43.115Z,10.67
2018-03-27T14:20:53.169Z,10.65
2018-03-27T14:22:03.378Z,10.7
2018-03-27T14:23:13.609Z,10.69
2018-03-27T14:24:23.507Z,10.72
2018-03-27T14:25:33.522Z,10.8
2018-03-27T14:26:43.722Z,10.69
2018-03-27T14:27:53.632Z,10.76
2018-03-27T14:29:03.832Z,10.72
2018-03-27T14:30:13.997Z,10.66
2018-03-27T14:31:23.908Z,10.69
2018-03-27T14:32:33.852Z,10.61
2018-03-27T14:33:43.692Z,10.42
2018-03-27T14:34:53.627Z,10.32
2018-03-27T14:36:03.816Z,10.1
2018-03-27T14:37:13.390Z,9.95
2018-03-27T14:38:23.666Z,9.89
2018-03-27T14:39:33.893Z,9.85
2018-03-27T14:40:44.430Z,9.88
2018-03-27T14:41:54.657Z,9.84
2018-03-27T14:43:04.912Z,9.96
2018-03-27T14:44:15.124Z,9.99
2018-03-27T14:45:25.315Z,9.96
2018-03-27T14:46:35.630Z,10.03
2018-03-27T14:47:45.848Z,9.85
2018-03-27T14:48:56.030Z,9.71
2018-03-27T14:50:06.277Z,9.67
2018-03-27T14:51:16.513Z,9.63
2018-03-27T14:52:26.685Z,9.59
2018-03-27T14:53:36.618Z,9.41
2018-03-27T14:54:46.812Z,9.4
2018-03-27T14:55:57.019Z,9.38
2018-03-27T14:57:07.192Z,9.34
2018-03-27T14:58:17.093Z,9.34
2018-03-27T14:59:27.295Z,9.33
2018-03-27T15:00:37.512Z,9.22
2018-03-27T15:01:47.320Z,9.19
2018-03-27T15:02:57.603Z,9.11
2018-03-27T15:04:07.625Z,8.98
2018-03-27T15:05:17.767Z,9.04
2018-03-27T15:06:27.950Z,8.97
2018-03-27T15:07:38.133Z,8.95
2018-03-27T15:08:48.318Z,8.93
2018-03-27T15:09:59.446Z,8.92
2018-03-27T15:11:09.790Z,8.79
2018-03-27T15:12:19.981Z,8.84
2018-03-27T15:13:30.194Z,8.83
2018-03-27T15:14:40.489Z,8.75
2018-03-27T15:15:50.668Z,8.71
2018-03-27T15:17:00.952Z,8.84
2018-03-27T15:18:11.126Z,8.93
2018-03-27T15:19:20.982Z,8.89
2018-03-27T15:20:30.731Z,9.05
2018-03-27T15:21:40.791Z,9.02
2018-03-27T15:22:50.768Z,8.98
2018-03-27T15:24:00.965Z,9.12
2018-03-27T15:25:10.887Z,9.12
2018-03-27T15:26:21.093Z,9
2018-03-27T15:27:30.774Z,9
2018-03-27T15:28:40.927Z,9.02
2018-03-27T15:29:50.553Z,9.05
2018-03-27T15:31:00.514Z,8.87